Nasa Shuttle Landing Facility Airport
KTTS : rendu visible

Aérodrome :











RETROUVEZ-NOUS SUR...

 
LOGIN :

S'inscrire | Disclaimer

   EN    FR    IT 

 









Légende :    VFR   VFR Marginal   IFR   IFR Intensif   IFR Très Intensif
Visi : 
Plafond : 
>= 8 km
>= 3000ft
5 à 8 km
1000 à 3000 ft
1500m à 5 km
500 à 1000 ft
800 à 1500m
200 à 500 ft
< 800m
< 200 ft
Symboles :   Orages  Brouillard  Fortes neiges  Fortes précipitations  Vent > 20 kt






- Altitude de l'aérodrome : 10 ft


KTTS - Nasa Shuttle Landing Facility

DERNIER METAR :
  • 040856Z AUTO 01003KT 10SM -DZ SCT021 24/23 A2996 RMK AO2 LTG DSNT E-SE DZE08RAB08E38DZB38 SLP150 P0002 60002 T02360227 56009 $

METARs EXPIRÉS :
  • 040846Z AUTO 33003KT 10SM -DZ SCT021 24/23 A2996 RMK AO2 LTG DSNT E-SE DZE08RAB08E38DZB38 SLP150 $
  • 040841Z AUTO 00000KT 10SM -DZ BKN021 24/23 A2996 RMK AO2 LTG DSNT E-SE DZE08RAB08E38DZB38 BKN V SCT CIG 019 RWY15 CIG 019 RWY15/33 SLP150 $
  • 040826Z AUTO 00000KT 10SM -RA BR SCT021 BKN041 24/23 A2996 RMK AO2 DZE08RAB08 SLP150 $
  • 040756Z AUTO 00000KT 10SM -DZ FEW027 SCT033 24/23 A2997 RMK AO2 RAE16RAB38E39DZB39E47DZB55 SLP153 P0000 T02390230 $
  • 040716Z AUTO 00000KT 10SM FEW020 24/23 A2996 RMK AO2 RAE16 SLP150 $
  • 040706Z AUTO 00000KT 10SM -RA SCT019 24/23 A2996 RMK AO2 SLP150 $
  • 040656Z AUTO 00000KT 10SM -RA BKN019 24/23 A2997 RMK AO2 DZB20E30DZB32E44RAB44 SLP153 P0000 T02370228 $
  • 040637Z AUTO 00000KT 10SM -DZ BKN019 24/23 A2997 RMK AO2 DZB20E30DZB32 BKN V FEW SLP153 $
  • 040632Z AUTO 00000KT 10SM -DZ SCT019 24/22 A2998 RMK AO2 DZB20E30DZB32 SLP156 $

Prévision TAF périmée.
FIR KZMA / Amérique du Nord



MET'MAP, la Météo Aéronautique d'un coup d'oeil ! - Copyright ORBIFLY Décembre 2007 - Disclaimer

ORBIFLY MET'MAP TEAM :

Programmation & Développement : Alexandra Zaïnal
Sur une idée originale de : Baudouin d'Aumeries
Assistance à la programmation : Marc-Olivier Méhu
Soutien technique & logistique : Manuel Goepfert

Contact : metmap@orbifly.com




SOURCES & CREDITS :

   NOAA       Earth
Advisory